createdAt,value
2023-04-19T00:00:49.610Z,10.23
2023-04-19T00:03:17.344Z,10.45
2023-04-19T00:05:44.615Z,12.35
2023-04-19T00:08:11.138Z,10.52
2023-04-19T00:10:39.845Z,11.80
2023-04-19T00:13:06.519Z,11.05
2023-04-19T00:15:35.016Z,11.48
2023-04-19T00:18:01.689Z,10.60
2023-04-19T00:20:28.219Z,11.10
2023-04-19T00:22:54.789Z,9.55
2023-04-19T00:25:21.303Z,9.57
2023-04-19T00:27:47.875Z,10.48
2023-04-19T00:30:14.557Z,10.07
2023-04-19T00:32:41.181Z,10.43
2023-04-19T00:35:08.054Z,9.88
2023-04-19T00:37:34.642Z,10.15
2023-04-19T00:40:01.172Z,9.82
2023-04-19T00:42:27.728Z,9.18
2023-04-19T00:44:54.271Z,11.60
2023-04-19T00:47:20.844Z,8.38
2023-04-19T00:49:47.426Z,13.57
2023-04-19T00:52:14.220Z,10.38
2023-04-19T00:54:43.379Z,9.35
2023-04-19T00:57:10.061Z,8.38
2023-04-19T00:59:36.859Z,9.15
2023-04-19T01:02:03.508Z,15.73
2023-04-19T01:04:30.325Z,8.43
2023-04-19T01:06:57.421Z,7.50
2023-04-19T01:09:23.952Z,8.68
2023-04-19T01:11:51.001Z,10.50
2023-04-19T01:14:17.706Z,7.93
2023-04-19T01:16:45.502Z,7.88
2023-04-19T01:19:12.441Z,8.70
2023-04-19T01:21:40.099Z,9.52
2023-04-19T01:24:07.107Z,6.20
2023-04-19T01:26:33.642Z,7.80
2023-04-19T01:29:00.218Z,7.10
2023-04-19T01:31:26.893Z,8.60
2023-04-19T01:33:53.398Z,7.35
2023-04-19T01:36:19.902Z,6.93
2023-04-19T01:38:47.768Z,8.32
2023-04-19T01:41:14.454Z,7.18
2023-04-19T01:43:40.952Z,7.50
2023-04-19T01:46:07.505Z,6.65
2023-04-19T01:48:34.035Z,7.82
2023-04-19T01:51:00.634Z,7.88
2023-04-19T01:53:27.178Z,7.30
2023-04-19T01:55:53.688Z,7.40
2023-04-19T01:58:20.509Z,8.18
2023-04-19T02:00:47.158Z,7.78
2023-04-19T02:03:13.979Z,7.65
2023-04-19T02:05:40.775Z,7.70
2023-04-19T02:08:07.298Z,6.75
2023-04-19T02:10:33.815Z,7.25
2023-04-19T02:13:00.363Z,7.03
2023-04-19T02:15:26.904Z,6.95
2023-04-19T02:17:53.514Z,6.38
2023-04-19T02:20:20.180Z,6.63
2023-04-19T02:22:47.867Z,7.15
2023-04-19T02:25:15.603Z,6.65
2023-04-19T02:27:42.126Z,6.18
2023-04-19T02:30:09.602Z,6.70
2023-04-19T02:32:36.516Z,6.80
2023-04-19T02:35:03.102Z,6.55
2023-04-19T02:37:29.601Z,6.95
2023-04-19T02:39:56.106Z,6.43
2023-04-19T02:42:22.573Z,7.05
2023-04-19T02:44:49.066Z,5.97
2023-04-19T02:47:15.750Z,6.53
2023-04-19T02:49:42.687Z,6.70
2023-04-19T02:52:09.329Z,6.13
2023-04-19T02:54:35.942Z,5.75
2023-04-19T02:57:02.669Z,6.60
2023-04-19T02:59:29.192Z,5.75
2023-04-19T03:01:55.823Z,6.47
2023-04-19T03:04:22.656Z,5.40
2023-04-19T03:06:49.208Z,4.40
2023-04-19T03:09:15.810Z,6.18
2023-04-19T03:11:42.936Z,6.57
2023-04-19T03:14:09.458Z,5.20
2023-04-19T03:16:36.643Z,6.70
2023-04-19T03:19:03.326Z,6.65
2023-04-19T03:21:29.900Z,5.20
2023-04-19T03:23:56.399Z,5.78
2023-04-19T03:26:23.007Z,5.75
2023-04-19T03:28:49.558Z,5.35
2023-04-19T03:31:16.466Z,5.97
2023-04-19T03:33:43.051Z,5.75
2023-04-19T03:36:09.628Z,5.13
2023-04-19T03:38:37.258Z,6.40
2023-04-19T03:41:03.775Z,5.28
2023-04-19T03:43:30.365Z,6.72
2023-04-19T03:45:56.924Z,6.72
2023-04-19T03:48:23.471Z,4.60
2023-04-19T03:50:49.992Z,4.65
2023-04-19T03:53:18.848Z,5.57
2023-04-19T03:55:45.894Z,5.82
2023-04-19T03:58:12.386Z,6.05
2023-04-19T04:00:38.889Z,7.75
2023-04-19T04:03:05.548Z,5.43
2023-04-19T04:05:32.299Z,6.68
2023-04-19T04:07:58.938Z,5.63
2023-04-19T04:10:25.537Z,5.78
2023-04-19T04:12:52.070Z,5.45
2023-04-19T04:15:18.627Z,5.28
2023-04-19T04:17:45.212Z,4.63
2023-04-19T04:20:13.435Z,6.22
2023-04-19T04:22:43.742Z,4.93
2023-04-19T04:25:10.275Z,5.72
2023-04-19T04:27:37.514Z,6.07
2023-04-19T04:30:04.843Z,4.85
2023-04-19T04:32:35.909Z,5.68
2023-04-19T04:35:03.790Z,5.75
2023-04-19T04:37:33.983Z,5.35
2023-04-19T04:40:01.646Z,5.50
2023-04-19T04:42:31.391Z,5.70
2023-04-19T04:44:58.026Z,5.55
2023-04-19T04:47:24.841Z,4.88
2023-04-19T04:49:52.644Z,4.97
2023-04-19T04:52:19.206Z,7.35
2023-04-19T04:54:45.715Z,4.65
2023-04-19T04:57:12.222Z,6.07
2023-04-19T04:59:38.795Z,4.78
2023-04-19T05:02:05.418Z,7.32
2023-04-19T05:04:32.097Z,5.43
2023-04-19T05:06:58.689Z,5.38
2023-04-19T05:09:25.256Z,5.47
2023-04-19T05:11:51.852Z,5.00
2023-04-19T05:14:18.400Z,7.28
2023-04-19T05:16:44.956Z,4.40
2023-04-19T05:19:11.553Z,5.35
2023-04-19T05:21:38.204Z,5.43
2023-04-19T05:24:05.246Z,5.15
2023-04-19T05:26:32.189Z,5.47
2023-04-19T05:28:58.994Z,4.90
2023-04-19T05:31:25.604Z,5.35
2023-04-19T05:33:52.177Z,6.97
2023-04-19T05:36:18.689Z,5.97
2023-04-19T05:38:45.787Z,5.28
2023-04-19T05:41:12.310Z,4.85
2023-04-19T05:43:38.862Z,5.00
2023-04-19T05:46:05.432Z,5.25
2023-04-19T05:48:31.934Z,5.15
2023-04-19T05:50:59.602Z,5.53
2023-04-19T05:53:26.143Z,5.63
2023-04-19T05:55:52.763Z,5.82
2023-04-19T05:58:19.492Z,5.80
2023-04-19T06:00:46.690Z,7.32
2023-04-19T06:03:13.521Z,5.15
2023-04-19T06:05:41.040Z,5.13
2023-04-19T06:08:09.400Z,6.45
2023-04-19T06:10:51.880Z,6.13
2023-04-19T06:13:22.837Z,4.95
2023-04-19T06:15:49.849Z,5.43
2023-04-19T06:18:19.344Z,5.72
2023-04-19T06:20:46.848Z,5.55
2023-04-19T06:23:15.482Z,4.95
2023-04-19T06:25:42.157Z,5.68
2023-04-19T06:28:08.769Z,5.35
2023-04-19T06:30:35.631Z,6.05
2023-04-19T06:33:02.266Z,5.15
2023-04-19T06:35:28.843Z,7.00
2023-04-19T06:37:55.329Z,5.47
2023-04-19T06:40:21.923Z,5.80
2023-04-19T06:42:48.548Z,5.88
2023-04-19T06:45:16.115Z,7.72
2023-04-19T06:47:42.763Z,6.00
2023-04-19T06:50:10.819Z,4.97
2023-04-19T06:52:38.855Z,5.35
2023-04-19T06:55:09.680Z,5.63
2023-04-19T06:57:36.228Z,6.50
2023-04-19T07:00:04.257Z,6.32
2023-04-19T07:02:30.871Z,7.10
2023-04-19T07:04:57.430Z,6.30
2023-04-19T07:07:23.955Z,5.45
2023-04-19T07:09:50.789Z,7.05
2023-04-19T07:12:17.278Z,6.82
2023-04-19T07:14:43.798Z,5.25
2023-04-19T07:17:10.423Z,6.30
2023-04-19T07:19:37.012Z,5.95
2023-04-19T07:22:03.670Z,5.75
2023-04-19T07:24:30.427Z,6.20
2023-04-19T07:26:57.545Z,6.68
2023-04-19T07:29:24.034Z,4.25
2023-04-19T07:31:50.626Z,6.35
2023-04-19T07:34:17.793Z,6.88
2023-04-19T07:36:44.605Z,6.18
2023-04-19T07:39:11.310Z,4.88
2023-04-19T07:41:38.002Z,6.32
2023-04-19T07:44:04.630Z,3.53
2023-04-19T07:46:31.175Z,5.45
2023-04-19T07:48:57.694Z,5.88
2023-04-19T07:51:25.127Z,5.38
2023-04-19T07:53:51.705Z,3.65
2023-04-19T07:56:19.928Z,4.60
2023-04-19T07:58:50.926Z,4.15
2023-04-19T08:01:23.543Z,4.82
2023-04-19T08:03:50.327Z,5.80
2023-04-19T08:06:17.991Z,4.35
2023-04-19T08:08:44.761Z,6.15
2023-04-19T08:11:11.386Z,8.80
2023-04-19T08:13:39.914Z,5.20
2023-04-19T08:18:36.529Z,5.63
2023-04-19T08:21:03.415Z,4.03
2023-04-19T08:23:41.212Z,6.78
2023-04-19T08:26:14.196Z,5.95
2023-04-19T08:28:40.783Z,4.50
2023-04-19T08:31:07.676Z,5.05
2023-04-19T08:33:34.299Z,5.05
2023-04-19T08:36:00.863Z,4.18
2023-04-19T08:38:27.386Z,4.75
2023-04-19T08:40:57.779Z,6.43
2023-04-19T08:43:25.836Z,5.03
2023-04-19T08:45:53.921Z,7.82
2023-04-19T08:48:21.939Z,4.45
2023-04-19T08:51:04.387Z,5.45
2023-04-19T08:53:35.543Z,5.70
2023-04-19T08:58:46.643Z,5.15
2023-04-19T09:01:33.960Z,5.40
2023-04-19T09:04:21.483Z,3.17
2023-04-19T09:06:55.153Z,7.78
2023-04-19T09:09:35.458Z,5.05
2023-04-19T09:12:03.696Z,5.50
2023-04-19T09:14:30.543Z,4.40
2023-04-19T09:17:16.622Z,4.43
2023-04-19T09:19:48.104Z,3.83
2023-04-19T09:22:14.998Z,2.97
2023-04-19T09:27:12.308Z,3.08
2023-04-19T09:29:39.091Z,3.70
2023-04-19T09:32:06.290Z,2.28
2023-04-19T09:34:32.912Z,5.95
2023-04-19T09:37:17.744Z,5.15
2023-04-19T09:39:59.316Z,2.63
2023-04-19T09:43:05.288Z,2.67
2023-04-19T09:45:44.985Z,4.10
2023-04-19T09:48:13.024Z,3.63
2023-04-19T09:51:00.175Z,5.28
2023-04-19T09:53:33.966Z,3.60
2023-04-19T09:56:03.013Z,3.05
2023-04-19T09:58:42.587Z,4.32
2023-04-19T10:01:18.947Z,3.30
2023-04-19T10:03:49.077Z,3.33
2023-04-19T10:06:33.198Z,2.85
2023-04-19T10:09:05.283Z,4.72
2023-04-19T10:11:39.094Z,3.03
2023-04-19T10:14:08.469Z,3.08
2023-04-19T10:16:37.024Z,3.13
2023-04-19T10:19:10.277Z,4.28
2023-04-19T10:21:38.165Z,2.78
2023-04-19T10:24:05.738Z,3.10
2023-04-19T10:27:14.013Z,3.30
2023-04-19T10:30:10.503Z,3.17
2023-04-19T10:32:42.673Z,2.65
2023-04-19T10:35:12.308Z,2.95
2023-04-19T10:37:41.734Z,2.28
2023-04-19T10:40:08.814Z,3.28
2023-04-19T10:43:14.720Z,2.72
2023-04-19T10:45:41.295Z,4.53
2023-04-19T10:48:33.013Z,2.17
2023-04-19T10:51:21.397Z,1.98
2023-04-19T10:53:48.205Z,3.28
2023-04-19T10:56:16.429Z,3.72
2023-04-19T10:59:01.293Z,2.22
2023-04-19T11:01:43.380Z,2.20
2023-04-19T11:04:37.533Z,2.58
2023-04-19T11:07:07.878Z,2.33
2023-04-19T11:09:39.525Z,2.42
2023-04-19T11:12:09.068Z,2.55
2023-04-19T11:14:39.601Z,1.73
2023-04-19T11:17:17.889Z,2.38
2023-04-19T11:20:09.847Z,2.50
2023-04-19T11:22:41.280Z,2.03
2023-04-19T11:25:12.317Z,2.45
2023-04-19T11:27:41.186Z,2.42
2023-04-19T11:30:10.320Z,3.47
2023-04-19T11:32:37.927Z,1.80
2023-04-19T11:35:07.874Z,1.67
2023-04-19T11:37:39.216Z,1.90
2023-04-19T11:40:06.812Z,3.03
2023-04-19T11:42:33.942Z,2.10
2023-04-19T11:45:00.553Z,1.30
2023-04-19T11:47:27.512Z,3.22
2023-04-19T11:49:56.956Z,2.00
2023-04-19T11:52:26.524Z,1.98
2023-04-19T11:54:53.971Z,3.10
2023-04-19T11:57:30.986Z,2.25
2023-04-19T12:00:12.244Z,1.63
2023-04-19T12:02:44.180Z,1.40
2023-04-19T12:05:13.598Z,2.53
2023-04-19T12:07:58.485Z,1.77
2023-04-19T12:10:25.067Z,2.58
2023-04-19T12:12:51.623Z,3.40
2023-04-19T12:15:18.225Z,2.83
2023-04-19T12:17:58.308Z,3.08
2023-04-19T12:20:35.439Z,1.60
2023-04-19T12:23:02.780Z,1.67
2023-04-19T12:25:33.762Z,1.52
2023-04-19T12:28:02.741Z,1.73
2023-04-19T12:30:29.293Z,1.58
2023-04-19T12:32:56.044Z,1.58
2023-04-19T12:35:24.352Z,4.07
2023-04-19T12:37:52.290Z,2.47
2023-04-19T12:40:18.833Z,1.20
2023-04-19T12:42:45.411Z,2.92
2023-04-19T12:45:13.279Z,3.33
2023-04-19T12:47:41.115Z,2.53
2023-04-19T12:50:08.617Z,2.75
2023-04-19T12:52:36.067Z,2.05
2023-04-19T12:55:03.277Z,2.70
2023-04-19T12:57:30.226Z,2.28
2023-04-19T12:59:56.748Z,4.28
2023-04-19T13:02:23.667Z,4.43
2023-04-19T13:04:51.095Z,3.80
2023-04-19T13:07:17.922Z,3.45
2023-04-19T13:09:44.458Z,3.05
2023-04-19T13:12:11.039Z,3.33
2023-04-19T13:14:37.583Z,3.47
2023-04-19T13:17:04.060Z,4.90
2023-04-19T13:19:31.113Z,3.28
2023-04-19T13:21:57.644Z,5.72
2023-04-19T13:24:24.176Z,3.60
2023-04-19T13:26:50.847Z,2.95
2023-04-19T13:29:17.508Z,4.72
2023-04-19T13:31:44.165Z,5.88
2023-04-19T13:34:10.732Z,5.43
2023-04-19T13:36:37.717Z,4.45
2023-04-19T13:39:05.340Z,9.38
2023-04-19T13:41:33.478Z,8.05
2023-04-19T13:44:00.010Z,8.50
2023-04-19T13:46:26.574Z,7.03
2023-04-19T13:48:53.174Z,10.60
2023-04-19T13:51:19.693Z,8.07
2023-04-19T13:53:46.251Z,5.90
2023-04-19T13:56:12.847Z,9.50
2023-04-19T13:58:39.387Z,7.20
2023-04-19T14:01:06.229Z,7.50
2023-04-19T14:03:32.978Z,7.80
2023-04-19T14:05:59.647Z,5.00
2023-04-19T14:08:26.242Z,7.20
2023-04-19T14:10:52.821Z,7.15
2023-04-19T14:13:19.402Z,9.57
2023-04-19T14:15:46.639Z,3.92
2023-04-19T14:18:13.349Z,8.05
2023-04-19T14:20:39.963Z,8.57
2023-04-19T14:23:06.510Z,4.53
2023-04-19T14:25:33.093Z,9.50
2023-04-19T14:27:59.627Z,7.03
2023-04-19T14:30:26.289Z,7.10
2023-04-19T14:32:53.059Z,8.75
2023-04-19T14:35:20.065Z,7.38
2023-04-19T14:37:46.752Z,6.85
2023-04-19T14:40:13.375Z,6.40
2023-04-19T14:42:40.070Z,5.22
2023-04-19T14:45:07.332Z,6.82
2023-04-19T14:47:34.370Z,14.05
2023-04-19T14:50:00.967Z,8.63
2023-04-19T14:52:27.551Z,5.70
2023-04-19T14:54:54.465Z,8.40
2023-04-19T14:57:21.002Z,6.43
2023-04-19T14:59:47.541Z,6.28
2023-04-19T15:02:14.193Z,8.65
2023-04-19T15:04:41.877Z,8.00
2023-04-19T15:07:08.858Z,4.20
2023-04-19T15:09:35.529Z,10.60
2023-04-19T15:12:02.221Z,5.88
2023-04-19T15:14:28.761Z,7.15
2023-04-19T15:16:55.522Z,11.63
2023-04-19T15:19:22.096Z,8.32
2023-04-19T15:21:48.713Z,13.32
2023-04-19T15:24:15.364Z,11.75
2023-04-19T15:26:44.116Z,14.50
2023-04-19T15:29:10.997Z,16.73
2023-04-19T15:31:37.598Z,14.85
2023-04-19T15:34:04.554Z,12.93
2023-04-19T15:36:31.505Z,11.90
2023-04-19T15:38:59.208Z,12.55
2023-04-19T15:41:25.857Z,10.38
2023-04-19T15:43:53.355Z,18.45
2023-04-19T15:46:19.866Z,10.52
2023-04-19T15:48:48.257Z,19.45
2023-04-19T15:51:15.370Z,12.60
2023-04-19T15:53:42.562Z,12.85
2023-04-19T15:56:10.797Z,11.70
2023-04-19T15:58:37.631Z,11.98
2023-04-19T16:01:04.308Z,19.17
2023-04-19T16:03:31.101Z,12.57
2023-04-19T16:05:57.846Z,18.10
2023-04-19T16:08:24.386Z,11.85
2023-04-19T16:10:51.111Z,11.73
2023-04-19T16:13:17.776Z,15.75
2023-04-19T16:15:44.731Z,13.48
2023-04-19T16:18:12.316Z,12.20
2023-04-19T16:20:39.874Z,18.33
2023-04-19T16:23:06.667Z,15.15
2023-04-19T16:25:34.204Z,14.98
2023-04-19T16:28:01.250Z,10.50
2023-04-19T16:30:28.433Z,14.80
2023-04-19T16:32:56.128Z,13.15
2023-04-19T16:35:23.638Z,13.48
2023-04-19T16:37:50.712Z,14.25
2023-04-19T16:40:17.342Z,22.20
2023-04-19T16:42:43.977Z,16.25
2023-04-19T16:45:11.136Z,19.17
2023-04-19T16:47:37.989Z,21.10
2023-04-19T16:50:06.120Z,21.65
2023-04-19T16:52:34.932Z,25.23
2023-04-19T16:55:04.203Z,21.50
2023-04-19T16:57:31.708Z,23.67
2023-04-19T16:59:58.406Z,21.38
2023-04-19T17:02:25.175Z,24.00
2023-04-19T17:04:52.078Z,25.25
2023-04-19T17:07:18.739Z,35.28
2023-04-19T17:09:46.196Z,29.10
2023-04-19T17:12:12.737Z,37.80
2023-04-19T17:14:39.451Z,40.58
2023-04-19T17:17:06.261Z,37.70
2023-04-19T17:19:32.813Z,36.10
2023-04-19T17:22:05.001Z,46.50
2023-04-19T17:24:32.900Z,41.50
2023-04-19T17:27:00.336Z,39.33
2023-04-19T17:29:27.407Z,39.33
2023-04-19T17:31:54.199Z,41.80
2023-04-19T17:34:20.844Z,41.65
2023-04-19T17:36:47.369Z,35.70
2023-04-19T17:39:14.201Z,41.33
2023-04-19T17:41:41.299Z,40.88
2023-04-19T17:44:07.838Z,40.17
2023-04-19T17:46:34.454Z,39.10
2023-04-19T17:49:01.325Z,38.67
2023-04-19T17:51:27.898Z,38.25
2023-04-19T17:53:54.421Z,39.40
2023-04-19T17:56:21.380Z,42.03
2023-04-19T17:58:47.936Z,38.58
2023-04-19T18:01:16.293Z,43.90
2023-04-19T18:03:43.084Z,37.58
2023-04-19T18:06:10.648Z,43.22
2023-04-19T18:08:37.338Z,43.38
2023-04-19T18:11:03.897Z,35.83
2023-04-19T18:13:30.459Z,39.65
2023-04-19T18:15:57.153Z,36.08
2023-04-19T18:18:23.755Z,34.28
2023-04-19T18:20:50.359Z,34.17
2023-04-19T18:23:16.907Z,35.78
2023-04-19T18:25:43.484Z,39.45
2023-04-19T18:28:10.641Z,32.85
2023-04-19T18:30:37.273Z,34.05
2023-04-19T18:33:04.005Z,33.30
2023-04-19T18:35:30.783Z,33.47
2023-04-19T18:37:57.776Z,34.47
2023-04-19T18:40:24.347Z,33.35
2023-04-19T18:42:50.887Z,33.95
2023-04-19T18:45:17.811Z,29.85
2023-04-19T18:47:44.436Z,31.45
2023-04-19T18:50:11.951Z,32.30
2023-04-19T18:52:38.496Z,32.47
2023-04-19T18:55:06.298Z,30.17
2023-04-19T18:57:34.944Z,31.23
2023-04-19T19:00:02.697Z,32.63
2023-04-19T19:02:29.619Z,29.67
2023-04-19T19:05:01.191Z,28.27
2023-04-19T19:10:01.593Z,27.83
2023-04-19T19:12:30.631Z,27.10
2023-04-19T19:14:57.185Z,27.73
2023-04-19T19:17:27.923Z,27.42
2023-04-19T19:19:54.937Z,27.73
2023-04-19T19:22:27.779Z,24.92
2023-04-19T19:27:21.655Z,34.72
2023-04-19T19:29:48.249Z,32.70
2023-04-19T19:32:14.795Z,34.63
2023-04-19T19:34:53.848Z,33.35
2023-04-19T19:37:22.780Z,34.65
2023-04-19T19:39:49.705Z,37.97
2023-04-19T19:42:17.219Z,36.17
2023-04-19T19:44:44.153Z,40.40
2023-04-19T19:47:11.080Z,34.53
2023-04-19T19:52:07.909Z,36.40
2023-04-19T19:54:34.504Z,33.97
2023-04-19T19:59:34.474Z,37.47
2023-04-19T20:02:02.368Z,34.75
2023-04-19T20:04:29.381Z,34.85
2023-04-19T20:09:27.663Z,32.85
2023-04-19T20:11:54.501Z,33.17
2023-04-19T20:14:23.754Z,30.25
2023-04-19T20:16:50.793Z,28.40
2023-04-19T20:19:18.289Z,29.90
2023-04-19T20:21:46.943Z,28.85
2023-04-19T20:24:13.721Z,29.75
2023-04-19T20:26:40.291Z,29.27
2023-04-19T20:29:06.995Z,27.55
2023-04-19T20:31:33.589Z,29.05
2023-04-19T20:34:00.216Z,29.52
2023-04-19T20:36:27.879Z,29.33
2023-04-19T20:38:56.807Z,30.95
2023-04-19T20:41:23.331Z,29.02
2023-04-19T20:43:50.052Z,29.15
2023-04-19T20:46:16.818Z,30.77
2023-04-19T20:48:43.431Z,28.30
2023-04-19T20:51:10.151Z,24.67
2023-04-19T20:53:36.707Z,30.90
2023-04-19T20:56:03.246Z,26.50
2023-04-19T20:58:32.154Z,27.25
2023-04-19T21:00:59.174Z,28.67
2023-04-19T21:03:26.161Z,26.38
2023-04-19T21:05:52.911Z,27.33
2023-04-19T21:08:19.478Z,25.17
2023-04-19T21:10:46.061Z,24.83
2023-04-19T21:13:12.536Z,27.05
2023-04-19T21:15:39.113Z,26.92
2023-04-19T21:18:05.744Z,26.73
2023-04-19T21:20:32.290Z,25.40
2023-04-19T21:23:00.068Z,25.45
2023-04-19T21:25:26.747Z,25.58
2023-04-19T21:27:53.284Z,24.20
2023-04-19T21:30:21.932Z,24.73
2023-04-19T21:32:49.635Z,23.75
2023-04-19T21:35:16.279Z,24.00
2023-04-19T21:37:42.843Z,23.15
2023-04-19T21:40:09.574Z,25.83
2023-04-19T21:42:36.168Z,23.92
2023-04-19T21:45:02.827Z,25.05
2023-04-19T21:47:29.337Z,24.38
2023-04-19T21:49:55.875Z,23.42
2023-04-19T21:52:22.368Z,21.48
2023-04-19T21:54:48.915Z,21.10
2023-04-19T21:57:17.491Z,23.15
2023-04-19T21:59:44.028Z,23.63
2023-04-19T22:02:10.632Z,23.02
2023-04-19T22:04:39.552Z,22.08
2023-04-19T22:07:07.640Z,21.05
2023-04-19T22:09:34.344Z,23.58
2023-04-19T22:12:01.632Z,21.85
2023-04-19T22:14:28.363Z,20.70
2023-04-19T22:16:56.397Z,19.92
2023-04-19T22:19:25.932Z,20.65
2023-04-19T22:21:53.471Z,22.35
2023-04-19T22:24:21.808Z,22.15
2023-04-19T22:26:50.069Z,20.27
2023-04-19T22:29:17.516Z,19.92
2023-04-19T22:31:44.247Z,20.63
2023-04-19T22:34:10.890Z,20.92
2023-04-19T22:36:37.370Z,21.58
2023-04-19T22:39:04.707Z,19.55
2023-04-19T22:41:33.025Z,18.33
2023-04-19T22:44:00.123Z,19.85
2023-04-19T22:46:27.290Z,19.25
2023-04-19T22:48:53.910Z,19.25
2023-04-19T22:51:20.502Z,19.83
2023-04-19T22:53:47.109Z,18.15
2023-04-19T22:56:13.738Z,18.15
2023-04-19T22:58:40.316Z,16.80
2023-04-19T23:01:06.925Z,17.52
2023-04-19T23:03:33.582Z,17.45
2023-04-19T23:06:03.468Z,16.45
2023-04-19T23:08:30.849Z,16.55
2023-04-19T23:10:57.451Z,14.68
2023-04-19T23:13:23.984Z,17.35
2023-04-19T23:15:50.557Z,16.20
2023-04-19T23:18:17.602Z,15.73
2023-04-19T23:20:44.236Z,15.57
2023-04-19T23:23:10.990Z,13.93
2023-04-19T23:25:37.511Z,15.75
2023-04-19T23:28:04.047Z,14.23
2023-04-19T23:30:31.992Z,14.65
2023-04-19T23:32:58.644Z,12.63
2023-04-19T23:35:25.326Z,14.10
2023-04-19T23:37:51.837Z,13.40
2023-04-19T23:40:18.421Z,12.20
2023-04-19T23:42:44.981Z,13.45
2023-04-19T23:45:11.574Z,13.18
2023-04-19T23:47:38.139Z,16.85
2023-04-19T23:50:04.988Z,14.95
2023-04-19T23:52:31.556Z,12.98
2023-04-19T23:54:58.089Z,14.00
2023-04-19T23:57:24.561Z,13.70
2023-04-19T23:59:51.382Z,12.20
